Time;durP1;ratioP1;P1;durP2;ratioP2;P2;SDS_P1;SDS_P2;PMS_P1;PMS_P2;Temp;Humidity;BMP_temperature;BMP_pressure;BME280_temperature;BME280_humidity;BME280_pressure;Samples;Min_cycle;Max_cycle;Signal;HPM_P1;HPM_P2
2024/02/19 00:02:17;;;;;;;52.05;24.83;;;;;;;4.91;100.00;98531.16;5075935;28;20043;-77
2024/02/19 00:04:43;;;;;;;56.85;26.00;;;;;;;4.86;100.00;98524.22;5076483;28;20489;-77
2024/02/19 00:07:08;;;;;;;52.50;26.58;;;;;;;4.81;100.00;98524.31;5075939;28;20028;-77
2024/02/19 00:09:34;;;;;;;51.22;24.52;;;;;;;4.80;100.00;98529.63;5092499;28;20129;-76
2024/02/19 00:11:59;;;;;;;50.08;24.55;;;;;;;4.80;100.00;98524.34;5075981;28;20070;-76
2024/02/19 00:14:25;;;;;;;54.28;25.90;;;;;;;4.80;100.00;98519.03;5074473;28;20399;-76
2024/02/19 00:16:53;;;;;;;53.38;25.58;;;;;;;4.77;100.00;98522.63;5092922;28;20145;-77
2024/02/19 00:19:19;;;;;;;54.33;25.58;;;;;;;4.76;100.00;98523.56;5076199;28;20081;-77
2024/02/19 00:21:44;;;;;;;51.78;24.83;;;;;;;4.64;100.00;98517.66;5092997;28;20027;-77
2024/02/19 00:24:10;;;;;;;51.72;23.60;;;;;;;4.65;100.00;98519.38;5075623;28;20471;-78
2024/02/19 00:26:36;;;;;;;54.25;25.83;;;;;;;4.61;100.00;98523.91;5075874;28;20111;-77
2024/02/19 00:29:02;;;;;;;51.70;24.30;;;;;;;4.54;100.00;98524.94;5075741;28;20023;-75
2024/02/19 00:31:29;;;;;;;60.35;28.00;;;;;;;4.46;100.00;98524.22;5075775;28;20048;-77
2024/02/19 00:33:55;;;;;;;54.70;25.33;;;;;;;4.52;100.00;98528.53;5075714;28;20034;-76
2024/02/19 00:36:21;;;;;;;47.40;23.15;;;;;;;4.44;100.00;98525.16;5075654;28;20035;-76
2024/02/19 00:38:46;;;;;;;55.47;25.05;;;;;;;4.41;100.00;98526.13;5075799;28;20079;-77
2024/02/19 00:41:12;;;;;;;47.17;22.42;;;;;;;4.38;100.00;98520.88;5086751;28;20032;-76
2024/02/19 00:43:37;;;;;;;47.42;23.08;;;;;;;4.32;100.00;98515.72;5071503;28;20031;-77
2024/02/19 00:46:04;;;;;;;41.80;21.20;;;;;;;4.24;100.00;98513.25;5092470;28;20512;-75
2024/02/19 00:48:29;;;;;;;41.72;20.13;;;;;;;4.22;100.00;98508.88;5072206;28;20054;-76
2024/02/19 00:50:55;;;;;;;40.67;21.08;;;;;;;4.26;100.00;98495.56;5089888;28;20035;-77
2024/02/19 00:53:21;;;;;;;40.60;20.52;;;;;;;4.26;100.00;98500.84;5073859;28;20085;-77
2024/02/19 00:55:46;;;;;;;40.65;20.77;;;;;;;4.31;100.00;98490.13;5056065;28;20087;-77
2024/02/19 00:58:12;;;;;;;44.10;20.92;;;;;;;4.40;100.00;98503.16;5055414;28;20024;-78
2024/02/19 01:00:38;;;;;;;42.30;20.40;;;;;;;4.38;100.00;98499.69;5055366;28;20089;-77
2024/02/19 01:03:03;;;;;;;48.72;21.35;;;;;;;4.35;100.00;98484.75;5055511;28;20032;-77
2024/02/19 01:05:32;;;;;;;43.58;21.63;;;;;;;4.31;100.00;98482.19;5051516;28;20032;-77
2024/02/19 01:07:57;;;;;;;39.95;20.65;;;;;;;4.29;100.00;98484.00;5055966;28;20016;-77
2024/02/19 01:10:23;;;;;;;46.40;21.77;;;;;;;4.34;100.00;98488.28;5068541;28;20065;-77
2024/02/19 01:12:49;;;;;;;44.10;22.42;;;;;;;4.35;100.00;98484.75;5055351;28;20027;-77
2024/02/19 01:15:15;;;;;;;45.08;21.77;;;;;;;4.31;100.00;98483.06;5068739;28;20031;-78
2024/02/19 01:17:43;;;;;;;44.30;22.45;;;;;;;4.29;100.00;98482.25;5055284;28;20061;-77
2024/02/19 01:20:09;;;;;;;49.28;24.40;;;;;;;4.28;100.00;98476.97;5056416;28;20027;-77
2024/02/19 01:22:35;;;;;;;52.78;25.00;;;;;;;4.22;100.00;98477.97;5075429;28;20423;-77
2024/02/19 01:25:01;;;;;;;59.97;26.38;;;;;;;4.20;100.00;98471.84;5059499;28;20032;-77
2024/02/19 01:27:26;;;;;;;48.42;24.48;;;;;;;4.17;100.00;98471.91;5092552;28;20024;-78
2024/02/19 01:29:52;;;;;;;50.40;25.30;;;;;;;4.06;100.00;98465.13;5059498;28;20032;-77
2024/02/19 01:32:17;;;;;;;50.53;24.80;;;;;;;4.02;100.00;98463.44;5059009;28;20036;-78
2024/02/19 01:34:43;;;;;;;50.03;24.65;;;;;;;3.99;100.00;98463.50;5058332;28;20502;-77
2024/02/19 01:37:09;;;;;;;54.55;23.52;;;;;;;4.03;100.00;98468.69;5058824;28;20032;-77
2024/02/19 01:39:34;;;;;;;48.92;24.02;;;;;;;3.95;100.00;98454.75;5082842;28;20522;-77
2024/02/19 01:42:00;;;;;;;56.63;26.77;;;;;;;3.96;100.00;98460.91;5075266;28;20043;-77
2024/02/19 01:44:26;;;;;;;58.25;26.58;;;;;;;3.91;100.00;98466.28;5058484;28;20105;-77
2024/02/19 01:46:51;;;;;;;59.72;26.30;;;;;;;3.88;100.00;98471.66;5058973;28;20020;-77
2024/02/19 01:49:18;;;;;;;56.33;26.23;;;;;;;3.78;100.00;98460.38;5058954;28;20545;-77
2024/02/19 01:51:44;;;;;;;61.05;28.88;;;;;;;3.84;100.00;98454.13;5058513;28;20055;-77
2024/02/19 01:54:11;;;;;;;63.00;28.80;;;;;;;3.83;100.00;98447.06;5058416;28;20071;-76
2024/02/19 01:56:38;;;;;;;56.08;28.27;;;;;;;3.78;100.00;98449.78;5076415;28;20034;-77
2024/02/19 01:59:06;;;;;;;57.83;27.25;;;;;;;3.78;100.00;98454.25;5089318;28;20023;-78
2024/02/19 02:01:34;;;;;;;50.10;24.75;;;;;;;3.65;100.00;98432.47;5078410;28;20083;-78
2024/02/19 02:03:59;;;;;;;49.97;24.05;;;;;;;3.56;100.00;98427.34;5095426;28;20030;-77
2024/02/19 02:06:25;;;;;;;49.00;24.08;;;;;;;3.48;100.00;98437.19;5078415;28;20110;-77
2024/02/19 02:08:51;;;;;;;56.97;25.55;;;;;;;3.35;100.00;98432.19;5078482;28;20059;-78
2024/02/19 02:11:17;;;;;;;48.95;23.10;;;;;;;3.34;100.00;98436.59;5089565;28;20039;-78
2024/02/19 02:13:42;;;;;;;50.38;25.02;;;;;;;3.22;100.00;98439.47;5060708;28;20157;-77
2024/02/19 02:16:08;;;;;;;55.88;23.00;;;;;;;3.14;100.00;98444.00;5064145;28;20138;-77
2024/02/19 02:18:34;;;;;;;48.60;22.85;;;;;;;3.00;100.00;98435.47;5049475;28;20032;-77
2024/02/19 02:20:59;;;;;;;47.55;22.67;;;;;;;2.84;100.00;98436.63;5058236;28;20536;-77
2024/02/19 02:23:25;;;;;;;51.15;23.52;;;;;;;2.85;100.00;98441.03;5073329;28;20490;-77
2024/02/19 02:25:54;;;;;;;48.00;22.92;;;;;;;2.88;100.00;98455.06;5077836;28;20034;-78
2024/02/19 02:28:21;;;;;;;55.70;24.70;;;;;;;2.74;100.00;98444.72;5094958;28;20024;-76
2024/02/19 02:30:48;;;;;;;52.78;25.15;;;;;;;2.75;100.00;98445.59;5092233;28;20586;-77
2024/02/19 02:33:14;;;;;;;50.05;22.75;;;;;;;2.62;100.00;98430.84;5057418;28;20024;-77
2024/02/19 02:35:40;;;;;;;49.15;24.15;;;;;;;2.68;100.00;98446.56;5067244;28;20027;-79
2024/02/19 02:38:06;;;;;;;53.33;23.65;;;;;;;2.69;100.00;98456.25;5094874;28;20028;-76
2024/02/19 02:40:31;;;;;;;48.38;22.77;;;;;;;2.59;100.00;98429.13;5078165;28;20028;-77
2024/02/19 02:42:57;;;;;;;44.28;22.17;;;;;;;2.64;100.00;98443.13;5057807;28;20410;-78
2024/02/19 02:45:23;;;;;;;44.78;21.48;;;;;;;2.58;100.00;98442.38;5050836;28;20032;-78
2024/02/19 02:47:48;;;;;;;45.10;22.08;;;;;;;2.53;100.00;98446.81;5045727;28;20031;-77
2024/02/19 02:50:14;;;;;;;46.13;21.90;;;;;;;2.50;100.00;98454.78;5051470;28;20031;-76
2024/02/19 02:52:39;;;;;;;47.22;22.77;;;;;;;2.41;100.00;98450.53;5074162;28;20527;-76
2024/02/19 02:55:06;;;;;;;48.30;22.17;;;;;;;2.39;100.00;98454.97;5076242;28;20069;-77
2024/02/19 02:57:31;;;;;;;44.50;21.88;;;;;;;2.41;100.00;98461.09;5094359;28;20033;-77
2024/02/19 02:59:57;;;;;;;47.30;23.08;;;;;;;2.37;100.00;98454.09;5077178;28;20494;-77
2024/02/19 03:02:22;;;;;;;44.50;22.15;;;;;;;2.40;100.00;98454.06;5077157;28;20042;-75
2024/02/19 03:04:48;;;;;;;51.85;23.00;;;;;;;2.45;100.00;98456.63;5076922;28;20035;-77
2024/02/19 03:07:14;;;;;;;52.83;23.88;;;;;;;2.45;100.00;98461.91;5077254;28;20388;-77
2024/02/19 03:09:39;;;;;;;49.10;22.17;;;;;;;2.48;100.00;98454.84;5077048;28;20503;-78
2024/02/19 03:12:05;;;;;;;51.92;22.75;;;;;;;2.52;100.00;98460.94;5077248;28;20088;-78
2024/02/19 03:14:31;;;;;;;44.72;21.52;;;;;;;2.50;100.00;98450.38;5077322;28;20070;-78
2024/02/19 03:16:57;;;;;;;43.38;21.15;;;;;;;2.35;100.00;98445.34;5076877;28;20135;-78
2024/02/19 03:19:22;;;;;;;47.80;21.48;;;;;;;2.33;100.00;98447.16;5094130;28;20383;-76
2024/02/19 03:21:48;;;;;;;47.80;22.30;;;;;;;2.35;100.00;98455.03;5074342;28;20060;-77
2024/02/19 03:24:14;;;;;;;41.85;20.88;;;;;;;2.30;100.00;98456.88;5076920;28;20119;-77
2024/02/19 03:26:41;;;;;;;44.67;21.08;;;;;;;2.18;100.00;98439.47;5093896;28;20093;-78
2024/02/19 03:29:11;;;;;;;45.95;20.85;;;;;;;2.31;100.00;98454.19;5076857;28;20163;-78
2024/02/19 03:31:38;;;;;;;41.10;20.95;;;;;;;2.23;100.00;98453.44;5076683;28;20031;-78
2024/02/19 03:34:03;;;;;;;46.22;22.63;;;;;;;2.26;100.00;98450.75;5076411;28;20043;-78
2024/02/19 03:36:29;;;;;;;41.95;20.20;;;;;;;2.24;100.00;98457.84;5076868;28;20514;-77
2024/02/19 03:38:55;;;;;;;49.80;21.40;;;;;;;2.17;100.00;98450.91;5093313;28;20027;-77
2024/02/19 03:41:21;;;;;;;49.75;22.15;;;;;;;2.15;100.00;98448.25;5076780;28;20023;-77
2024/02/19 03:43:46;;;;;;;49.50;21.45;;;;;;;2.19;100.00;98452.63;5075597;28;20024;-77
2024/02/19 03:46:12;;;;;;;44.70;21.85;;;;;;;2.32;100.00;98455.94;5093374;28;20035;-77
2024/02/19 03:48:38;;;;;;;49.13;21.70;;;;;;;2.29;100.00;98440.16;5076550;28;20092;-78
2024/02/19 03:51:04;;;;;;;139.07;78.75;;;;;;;2.35;100.00;98447.97;5076230;28;20039;-78
2024/02/19 03:53:30;;;;;;;49.33;24.88;;;;;;;2.43;100.00;98447.88;5093611;28;20031;-78
2024/02/19 03:55:56;;;;;;;43.70;20.38;;;;;;;2.59;100.00;98450.25;5075954;28;20436;-76
2024/02/19 03:58:23;;;;;;;50.05;24.42;;;;;;;2.73;100.00;98452.69;5075914;28;20043;-77
2024/02/19 04:00:48;;;;;;;56.88;26.15;;;;;;;2.81;100.00;98441.97;5076257;28;20028;-78
2024/02/19 04:03:16;;;;;;;61.15;26.17;;;;;;;2.98;100.00;98450.50;5076217;28;20119;-78
2024/02/19 04:05:41;;;;;;;57.78;24.60;;;;;;;2.99;100.00;98452.22;5076104;28;20034;-78
2024/02/19 04:08:07;;;;;;;52.38;25.55;;;;;;;2.89;100.00;98448.00;5092858;28;20475;-77
2024/02/19 04:10:32;;;;;;;60.13;27.90;;;;;;;2.91;100.00;98443.56;5093310;28;20057;-76
2024/02/19 04:12:58;;;;;;;62.17;30.00;;;;;;;2.92;100.00;98437.38;5075924;28;20062;-78
2024/02/19 04:15:24;;;;;;;61.92;28.08;;;;;;;3.22;100.00;98455.34;5075964;28;20031;-78
2024/02/19 04:17:49;;;;;;;65.13;28.65;;;;;;;3.31;100.00;98438.41;5092863;28;20023;-77
2024/02/19 04:20:17;;;;;;;66.97;31.88;;;;;;;3.33;100.00;98444.53;5075752;28;20065;-78
2024/02/19 04:22:42;;;;;;;61.40;29.10;;;;;;;3.34;100.00;98446.28;5093250;28;20482;-78
2024/02/19 04:25:08;;;;;;;79.60;37.13;;;;;;;3.31;100.00;98441.94;5075806;28;20031;-78
2024/02/19 04:27:37;;;;;;;76.00;35.60;;;;;;;3.25;100.00;98437.66;5076138;28;20023;-78
2024/02/19 04:30:03;;;;;;;74.22;33.25;;;;;;;3.31;100.00;98439.31;5076464;28;20046;-79
2024/02/19 04:32:29;;;;;;;64.63;31.02;;;;;;;3.34;100.00;98438.38;5092297;28;20141;-77
2024/02/19 04:34:55;;;;;;;67.47;32.22;;;;;;;3.38;100.00;98433.00;5093158;28;20144;-84
2024/02/19 04:37:21;;;;;;;69.00;31.95;;;;;;;3.40;100.00;98439.13;5075893;28;20057;-78
2024/02/19 04:39:47;;;;;;;75.97;33.38;;;;;;;3.41;100.00;98434.72;5075949;28;20019;-78
2024/02/19 04:42:14;;;;;;;64.90;31.30;;;;;;;3.38;100.00;98422.44;5075214;28;20095;-78
2024/02/19 04:44:40;;;;;;;65.35;30.67;;;;;;;3.33;100.00;98433.97;5092672;28;20629;-78
2024/02/19 04:47:05;;;;;;;73.43;29.92;;;;;;;3.23;100.00;98422.72;5092574;28;20123;-78
2024/02/19 04:49:31;;;;;;;67.22;31.35;;;;;;;3.28;100.00;98426.16;5076112;28;20085;-80
2024/02/19 04:51:57;;;;;;;72.95;31.27;;;;;;;3.24;100.00;98424.44;5075684;28;20042;-77
2024/02/19 04:54:22;;;;;;;76.60;33.78;;;;;;;3.18;100.00;98433.38;5071586;28;20043;-78
2024/02/19 04:56:48;;;;;;;74.57;32.80;;;;;;;3.03;100.00;98422.19;5075965;28;20028;-76
2024/02/19 04:59:13;;;;;;;57.55;26.15;;;;;;;2.92;100.00;98424.19;5114471;28;20411;-76
2024/02/19 05:01:39;;;;;;;72.47;27.52;;;;;;;2.88;100.00;98431.28;5114825;28;20031;-77
2024/02/19 05:04:05;;;;;;;61.72;28.40;;;;;;;2.81;100.00;98434.03;5079627;28;20550;-77
2024/02/19 05:06:30;;;;;;;63.00;28.08;;;;;;;2.81;100.00;98424.34;5114647;28;20074;-78
2024/02/19 05:08:56;;;;;;;70.00;29.88;;;;;;;2.72;100.00;98419.22;5096433;28;20448;-78
2024/02/19 05:11:22;;;;;;;62.40;29.98;;;;;;;2.83;100.00;98434.91;5079166;28;20027;-77
2024/02/19 05:13:47;;;;;;;61.50;29.35;;;;;;;2.93;100.00;98431.19;5079182;28;20065;-79
2024/02/19 05:16:13;;;;;;;73.72;32.42;;;;;;;2.97;100.00;98436.41;5079519;28;20046;-80
2024/02/19 05:18:39;;;;;;;104.25;43.05;;;;;;;3.02;100.00;98423.09;5079161;28;20047;-78
2024/02/19 05:21:06;;;;;;;81.78;35.38;;;;;;;3.10;100.00;98434.41;5096350;28;20069;-79
2024/02/19 05:23:32;;;;;;;82.57;33.63;;;;;;;3.14;100.00;98429.03;5078993;28;20035;-78
2024/02/19 05:25:58;;;;;;;73.60;34.30;;;;;;;3.10;100.00;98422.06;5079104;28;20498;-78
2024/02/19 05:28:24;;;;;;;68.72;30.60;;;;;;;3.27;100.00;98425.25;5079200;28;20467;-77
2024/02/19 05:30:49;;;;;;;68.55;30.60;;;;;;;3.13;100.00;98415.84;5078746;28;20104;-76
2024/02/19 05:33:18;;;;;;;57.25;26.92;;;;;;;3.24;100.00;98408.59;5079228;28;20034;-77
2024/02/19 05:35:45;;;;;;;67.65;29.85;;;;;;;3.33;100.00;98418.97;5096293;28;20032;-78
2024/02/19 05:38:12;;;;;;;125.93;59.53;;;;;;;3.31;100.00;98427.84;5095586;28;20059;-79
2024/02/19 05:40:38;;;;;;;87.95;39.80;;;;;;;3.42;100.00;98424.09;5078584;28;20050;-78
2024/02/19 05:43:04;;;;;;;82.05;35.53;;;;;;;3.39;100.00;98429.44;5096004;28;20038;-78
2024/02/19 05:45:30;;;;;;;93.45;39.05;;;;;;;3.31;100.00;98409.34;5095808;28;20038;-78
2024/02/19 05:47:56;;;;;;;82.50;35.28;;;;;;;3.39;100.00;98421.50;5078578;28;20429;-78
2024/02/19 05:50:22;;;;;;;120.35;46.55;;;;;;;3.48;100.00;98429.25;5095509;28;20122;-78
2024/02/19 05:52:47;;;;;;;86.57;35.63;;;;;;;3.29;100.00;98409.41;5095488;28;20031;-77
2024/02/19 05:55:13;;;;;;;89.20;40.70;;;;;;;3.45;100.00;98424.03;5078679;28;20052;-77
2024/02/19 05:57:39;;;;;;;92.00;38.03;;;;;;;3.48;100.00;98413.38;5078340;28;20492;-78
2024/02/19 06:00:05;;;;;;;89.82;41.25;;;;;;;3.61;100.00;98419.31;5078829;28;20020;-78
2024/02/19 06:02:31;;;;;;;97.70;45.03;;;;;;;3.75;100.00;98427.84;5095904;28;20039;-79
2024/02/19 06:04:57;;;;;;;85.22;41.22;;;;;;;3.77;100.00;98416.31;5095269;28;20042;-78
2024/02/19 06:07:22;;;;;;;83.18;41.67;;;;;;;3.99;100.00;98421.16;5077715;28;20031;-78
2024/02/19 06:09:48;;;;;;;99.22;42.05;;;;;;;3.96;100.00;98421.22;5077507;28;20080;-79
2024/02/19 06:12:13;;;;;;;111.53;41.85;;;;;;;4.11;100.00;98420.88;5078558;28;20042;-78
2024/02/19 06:14:39;;;;;;;138.65;53.78;;;;;;;4.14;100.00;98418.16;5095154;28;20027;-78
2024/02/19 06:17:05;;;;;;;149.82;60.00;;;;;;;4.23;100.00;98423.25;5078224;28;20102;-80
2024/02/19 06:19:30;;;;;;;148.43;56.45;;;;;;;4.32;100.00;98404.50;5078316;28;20036;-78
2024/02/19 06:21:56;;;;;;;130.90;56.83;;;;;;;4.36;100.00;98400.88;5078556;28;20436;-78
2024/02/19 06:24:40;;;;;;;152.35;62.65;;;;;;;4.47;100.00;98417.38;5078085;28;20028;-80
2024/02/19 06:27:08;;;;;;;133.95;55.63;;;;;;;4.48;100.00;98403.25;5113653;28;20087;-79
2024/02/19 06:29:34;;;;;;;128.20;47.97;;;;;;;4.42;100.00;98400.75;5095382;28;20118;-80
2024/02/19 06:32:00;;;;;;;98.80;39.20;;;;;;;4.40;100.00;98413.13;5078295;28;20111;-79
2024/02/19 06:34:26;;;;;;;104.30;41.22;;;;;;;4.41;100.00;98411.34;5077971;28;20111;-78
2024/02/19 06:36:52;;;;;;;90.18;36.53;;;;;;;4.45;100.00;98419.22;5095053;28;20024;-79
2024/02/19 06:39:19;;;;;;;87.70;34.53;;;;;;;4.55;100.00;98410.13;5113069;28;20028;-80
2024/02/19 06:41:46;;;;;;;76.18;32.83;;;;;;;4.63;100.00;98408.16;5094542;28;20016;-79
2024/02/19 06:44:12;;;;;;;74.18;34.60;;;;;;;4.85;100.00;98416.44;5111526;28;20028;-79
2024/02/19 06:46:37;;;;;;;72.97;32.47;;;;;;;4.78;100.00;98405.13;5077821;28;20024;-80
2024/02/19 06:49:04;;;;;;;62.33;31.33;;;;;;;4.82;100.00;98403.28;5094247;28;20384;-79
2024/02/19 06:51:30;;;;;;;64.25;30.50;;;;;;;5.16;100.00;98411.22;5077842;28;20024;-79
2024/02/19 06:53:55;;;;;;;61.05;30.63;;;;;;;5.13;100.00;98396.28;5093746;28;20110;-81
2024/02/19 06:56:21;;;;;;;58.67;27.52;;;;;;;5.27;100.00;98403.84;5077691;28;20042;-80
2024/02/19 06:58:46;;;;;;;56.38;26.15;;;;;;;5.51;100.00;98416.41;5094612;28;20039;-80
2024/02/19 07:01:13;;;;;;;60.92;29.77;;;;;;;5.54;100.00;98402.22;5077728;28;20475;-79
2024/02/19 07:03:39;;;;;;;57.40;27.05;;;;;;;5.57;100.00;98402.97;5094202;28;20024;-80
2024/02/19 07:06:06;;;;;;;48.92;25.48;;;;;;;5.54;100.00;98400.41;5077752;28;20084;-80
2024/02/19 07:08:32;;;;;;;57.92;25.45;;;;;;;5.57;100.00;98400.31;5094725;28;20101;-80
2024/02/19 07:10:57;;;;;;;46.53;23.25;;;;;;;5.63;100.00;98405.47;5077002;28;20057;-79
2024/02/19 07:13:23;;;;;;;48.65;24.33;;;;;;;5.49;100.00;98405.00;5077406;28;20020;-79
2024/02/19 07:15:49;;;;;;;49.33;24.75;;;;;;;5.58;100.00;98401.19;5076790;28;20077;-79
2024/02/19 07:18:14;;;;;;;55.42;26.73;;;;;;;5.61;100.00;98393.16;5076603;28;20031;-79
2024/02/19 07:20:40;;;;;;;56.03;27.60;;;;;;;5.68;100.00;98378.81;5077007;28;20054;-78
2024/02/19 07:23:05;;;;;;;56.65;27.45;;;;;;;5.88;100.00;98403.88;5076877;28;20023;-77
2024/02/19 07:25:31;;;;;;;54.58;26.40;;;;;;;5.75;100.00;98391.84;5077047;28;20394;-80
2024/02/19 07:27:57;;;;;;;52.08;27.90;;;;;;;5.82;100.00;98392.53;5076635;28;20047;-77
2024/02/19 07:30:23;;;;;;;51.35;25.58;;;;;;;5.89;100.00;98395.00;5077209;28;20115;-78
2024/02/19 07:32:48;;;;;;;55.92;27.15;;;;;;;5.73;100.00;98382.19;5076900;28;20449;-77
2024/02/19 07:35:14;;;;;;;60.55;31.30;;;;;;;6.04;100.00;98396.31;5093968;28;20082;-78
2024/02/19 07:37:39;;;;;;;58.08;28.05;;;;;;;6.23;100.00;98399.28;5076912;28;20114;-78
2024/02/19 07:40:06;;;;;;;53.30;25.75;;;;;;;6.14;100.00;98388.94;5076321;28;20504;-79
2024/02/19 07:42:32;;;;;;;48.72;25.65;;;;;;;6.05;100.00;98397.19;5076980;28;20136;-78
2024/02/19 07:44:57;;;;;;;46.47;24.27;;;;;;;6.03;100.00;98394.56;5076683;28;20443;-77
2024/02/19 07:47:23;;;;;;;50.88;25.70;;;;;;;5.92;100.00;98400.22;5069466;28;20019;-78
2024/02/19 07:49:49;;;;;;;53.22;26.23;;;;;;;6.11;100.00;98389.03;5093649;28;20027;-78
2024/02/19 07:52:14;;;;;;;56.92;26.88;;;;;;;6.32;100.00;98383.94;5076712;28;20059;-79
2024/02/19 07:54:40;;;;;;;51.58;25.92;;;;;;;6.76;100.00;98394.91;5076630;28;20044;-77
2024/02/19 07:57:06;;;;;;;49.17;26.15;;;;;;;6.96;100.00;98393.31;5076454;28;20030;-77
2024/02/19 07:59:32;;;;;;;59.13;26.38;;;;;;;6.93;100.00;98382.78;5076669;28;20042;-79
2024/02/19 08:01:59;;;;;;;56.75;26.65;;;;;;;7.02;100.00;98379.81;5076692;28;20027;-79
2024/02/19 08:04:27;;;;;;;56.42;28.17;;;;;;;6.96;100.00;98381.81;5076446;28;20047;-77
2024/02/19 08:06:53;;;;;;;52.95;26.77;;;;;;;7.13;100.00;98389.22;5093718;28;20019;-78
2024/02/19 08:09:19;;;;;;;77.30;34.92;;;;;;;7.31;100.00;98377.91;5076413;28;20019;-78
2024/02/19 08:11:44;;;;;;;79.13;36.40;;;;;;;7.51;100.00;98386.91;5076350;28;20512;-78
2024/02/19 08:14:10;;;;;;;73.03;35.45;;;;;;;7.60;100.00;98370.59;5076635;28;20184;-79
2024/02/19 08:16:36;;;;;;;69.65;35.70;;;;;;;7.88;100.00;98386.44;5075915;28;20110;-79
2024/02/19 08:19:05;;;;;;;73.20;34.17;;;;;;;7.94;100.00;98359.56;5075462;28;20036;-77
2024/02/19 08:21:30;;;;;;;69.07;34.60;;;;;;;7.87;100.00;98373.19;5111507;28;20024;-79
2024/02/19 08:23:56;;;;;;;65.45;34.42;;;;;;;8.10;100.00;98376.69;5093045;28;20030;-78
2024/02/19 08:26:22;;;;;;;78.90;36.40;;;;;;;8.34;100.00;98360.69;5075892;28;20107;-79
2024/02/19 08:28:48;;;;;;;81.25;42.75;;;;;;;8.62;100.00;98364.84;5076206;28;20016;-78
2024/02/19 08:31:14;;;;;;;74.18;38.33;;;;;;;8.68;100.00;98371.72;5074877;28;20035;-78
2024/02/19 08:33:40;;;;;;;74.03;37.90;;;;;;;8.96;100.00;98363.44;5093063;28;20023;-78
2024/02/19 08:36:06;;;;;;;91.95;41.58;;;;;;;9.30;100.00;98365.53;5075823;28;20020;-78
2024/02/19 08:38:31;;;;;;;96.60;47.17;;;;;;;9.46;100.00;98353.25;5093130;28;20026;-78
2024/02/19 08:40:57;;;;;;;72.97;33.67;;;;;;;9.53;100.00;98365.38;5076195;28;20023;-79
2024/02/19 08:43:23;;;;;;;59.33;30.52;;;;;;;9.53;100.00;98360.91;5075955;28;20626;-79
2024/02/19 08:45:48;;;;;;;51.63;28.45;;;;;;;9.54;100.00;98351.06;5076222;28;20032;-78
2024/02/19 08:48:14;;;;;;;78.97;41.00;;;;;;;9.28;100.00;98362.94;5076008;28;20031;-78
2024/02/19 08:50:40;;;;;;;80.05;45.20;;;;;;;9.40;100.00;98374.88;5092443;28;20089;-78
2024/02/19 08:53:05;;;;;;;93.22;50.72;;;;;;;9.38;100.00;98368.75;5075525;28;20049;-78
2024/02/19 08:55:31;;;;;;;84.50;48.53;;;;;;;9.48;100.00;98367.38;5092463;28;20044;-79
2024/02/19 08:57:57;;;;;;;58.20;31.60;;;;;;;9.66;100.00;98372.75;5092571;28;20023;-78
2024/02/19 09:00:23;;;;;;;49.78;26.13;;;;;;;9.98;100.00;98357.06;5075599;28;20084;-78
2024/02/19 09:02:49;;;;;;;47.20;22.60;;;;;;;9.84;100.00;98360.41;5092216;28;20979;-78
2024/02/19 09:05:17;;;;;;;44.38;24.10;;;;;;;9.69;100.00;98367.28;5075392;28;20114;-78
2024/02/19 09:07:43;;;;;;;53.33;22.88;;;;;;;9.87;100.00;98370.94;5075911;28;20107;-78
2024/02/19 09:10:08;;;;;;;50.53;22.23;;;;;;;9.97;100.00;98360.66;5092291;28;20119;-78
2024/02/19 09:12:34;;;;;;;40.85;21.60;;;;;;;10.12;100.00;98355.47;5075452;28;20035;-77
2024/02/19 09:15:00;;;;;;;47.65;23.10;;;;;;;10.07;100.00;98353.97;5075386;28;20425;-77
2024/02/19 09:17:25;;;;;;;45.20;22.52;;;;;;;10.42;100.00;98353.19;5092213;28;20454;-78
2024/02/19 09:19:51;;;;;;;48.40;23.27;;;;;;;10.66;100.00;98357.34;5075275;28;20027;-78
2024/02/19 09:22:17;;;;;;;49.47;22.92;;;;;;;10.81;100.00;98345.88;5075476;28;20391;-78
2024/02/19 09:24:46;;;;;;;44.53;22.23;;;;;;;11.03;100.00;98351.03;5075124;28;20110;-78
2024/02/19 09:27:13;;;;;;;49.33;26.10;;;;;;;11.15;100.00;98352.19;5075462;28;20035;-78
2024/02/19 09:29:38;;;;;;;43.75;22.10;;;;;;;11.51;100.00;98339.56;5075289;28;20020;-79
2024/02/19 09:32:04;;;;;;;39.65;21.58;;;;;;;12.01;100.00;98336.00;5092168;28;20019;-79
2024/02/19 09:34:30;;;;;;;58.88;26.90;;;;;;;12.32;100.00;98328.84;5075192;28;20070;-77
2024/02/19 09:36:55;;;;;;;50.63;23.98;;;;;;;12.12;100.00;98314.84;5091611;28;20051;-77
2024/02/19 09:39:21;;;;;;;55.38;26.02;;;;;;;12.31;100.00;98320.88;5074949;28;20024;-78
2024/02/19 09:41:47;;;;;;;42.80;21.55;;;;;;;12.56;100.00;98325.72;5093614;28;20435;-77
2024/02/19 09:44:12;;;;;;;37.63;20.35;;;;;;;12.37;100.00;98323.22;5096246;28;20023;-78
2024/02/19 09:46:41;;;;;;;39.72;19.42;;;;;;;12.47;100.00;98319.06;5078592;28;20514;-78
2024/02/19 09:49:10;;;;;;;29.70;16.02;;;;;;;12.60;100.00;98319.22;5078980;28;20028;-77
2024/02/19 09:51:38;;;;;;;37.45;21.45;;;;;;;12.61;100.00;98305.72;5078503;28;20031;-78
2024/02/19 09:54:05;;;;;;;50.00;27.10;;;;;;;12.42;100.00;98299.69;5094007;28;20482;-79
2024/02/19 09:56:33;;;;;;;38.85;20.33;;;;;;;12.57;100.00;98290.75;5069815;28;20097;-78
2024/02/19 09:59:15;;;;;;;32.83;18.23;;;;;;;13.37;100.00;98302.06;5075139;28;20462;-78
2024/02/19 10:01:40;;;;;;;45.53;24.27;;;;;;;13.42;100.00;98302.63;5023773;28;20120;-79
2024/02/19 10:04:06;;;;;;;46.60;22.98;;;;;;;13.03;100.00;98286.22;5022300;28;20121;-78
2024/02/19 10:06:35;;;;;;;41.65;22.02;;;;;;;13.09;100.00;98296.63;4998450;28;20048;-78
2024/02/19 10:09:06;;;;;;;32.78;17.08;;;;;;;13.51;99.71;98280.56;5032203;28;20039;-78
2024/02/19 10:11:37;;;;;;;32.20;16.90;;;;;;;13.02;100.00;98289.84;5005923;28;20037;-79
2024/02/19 10:14:06;;;;;;;25.63;14.52;;;;;;;13.07;100.00;98269.81;5014865;28;20114;-78
2024/02/19 10:16:32;;;;;;;37.22;18.92;;;;;;;13.35;100.00;98271.69;4997982;28;20175;-78
2024/02/19 10:19:07;;;;;;;43.80;22.40;;;;;;;13.46;99.94;98269.25;5013922;28;20139;-79
2024/02/19 10:21:33;;;;;;;42.85;19.50;;;;;;;13.32;95.33;98263.84;4998024;28;20037;-78
2024/02/19 10:23:59;;;;;;;82.07;31.58;;;;;;;13.14;97.06;98256.03;4998349;28;20590;-78
2024/02/19 10:26:24;;;;;;;106.18;33.58;;;;;;;13.16;98.32;98259.50;4997887;28;20080;-78
2024/02/19 10:28:57;;;;;;;61.28;24.65;;;;;;;13.18;99.41;98261.13;5014380;28;20110;-79
2024/02/19 10:31:23;;;;;;;135.65;38.72;;;;;;;13.43;94.76;98258.69;5034226;28;20033;-79
2024/02/19 10:33:49;;;;;;;32.33;15.50;;;;;;;13.22;94.83;98251.94;5055408;28;20394;-79
2024/02/19 10:36:18;;;;;;;41.08;20.73;;;;;;;13.17;95.33;98251.34;5063245;28;20028;-79
2024/02/19 10:38:44;;;;;;;35.50;18.70;;;;;;;12.81;97.88;98257.09;5093989;28;20463;-79
2024/02/19 10:41:10;;;;;;;22.80;11.38;;;;;;;12.36;100.00;98244.56;5058257;28;20024;-78
2024/02/19 10:43:36;;;;;;;25.38;13.82;;;;;;;12.31;100.00;98235.03;5057922;28;20396;-78
2024/02/19 10:46:04;;;;;;;26.40;12.38;;;;;;;12.12;100.00;98254.00;5066148;28;20034;-78
2024/02/19 10:48:30;;;;;;;25.73;13.43;;;;;;;12.10;100.00;98245.19;5066848;28;20031;-78
2024/02/19 10:50:56;;;;;;;24.45;12.57;;;;;;;12.06;100.00;98238.25;5094941;28;20023;-78
2024/02/19 10:53:27;;;;;;;24.77;12.95;;;;;;;11.96;100.00;98234.38;5077362;28;20041;-78
2024/02/19 10:56:09;;;;;;;21.73;10.77;;;;;;;11.93;100.00;98235.38;5094540;28;20043;-78
2024/02/19 10:58:34;;;;;;;27.55;14.18;;;;;;;11.97;100.00;98241.44;5069578;28;20035;-78
2024/02/19 11:01:02;;;;;;;21.50;11.48;;;;;;;12.12;100.00;98231.69;5069719;28;20087;-79
2024/02/19 11:03:27;;;;;;;25.52;12.98;;;;;;;12.10;100.00;98230.91;5078050;28;20500;-77
2024/02/19 11:05:59;;;;;;;23.48;12.98;;;;;;;11.85;100.00;98229.59;5091810;28;20027;-78
2024/02/19 11:08:27;;;;;;;23.92;13.15;;;;;;;12.00;100.00;98227.88;5077679;28;20053;-78
2024/02/19 11:10:55;;;;;;;26.02;14.63;;;;;;;11.88;100.00;98228.56;5077263;28;20526;-79
2024/02/19 11:13:25;;;;;;;21.10;9.93;;;;;;;11.74;100.00;98215.97;5077082;28;20035;-77